Terminal Aerodrome Forecast
Issued by NWS

Home | Current Version | Previous Version | Text Only | Print | Product List | Glossary On
Versions: 1 2 3 4 5 6 7 8 9 10 11 12 13 14 15 16 17 18 19 20 21 22 23 24 25 26 27
000
FTUS43 KDLH 221700
TAFHIB
TAF
KHIB 221727Z 2218/2318 21008KT P6SM OVC008
     FM222000 21011G18KT P6SM BKN015 OVC120
     FM230100 22010KT P6SM -SN OVC009
     FM230600 24011KT 4SM -FZRA BR OVC013
     FM231300 27007KT 6SM -SNPL BR OVC008=

USA.gov is the U.S. government's official web portal to all federal, state and local government web resources and services.